createdAt,value
2018-10-18T00:00:52.249Z,1014.33
2018-10-18T00:01:52.852Z,1014.28
2018-10-18T00:02:53.404Z,1014.27
2018-10-18T00:03:53.980Z,1014.30
2018-10-18T00:04:54.606Z,1014.24
2018-10-18T00:05:55.243Z,1014.19
2018-10-18T00:06:55.852Z,1014.25
2018-10-18T00:07:56.455Z,1014.16
2018-10-18T00:08:57.005Z,1014.17
2018-10-18T00:09:57.581Z,1014.22
2018-10-18T00:10:58.157Z,1014.18
2018-10-18T00:11:58.794Z,1014.07
2018-10-18T00:12:59.314Z,1014.19
2018-10-18T00:13:59.979Z,1014.14
2018-10-18T00:15:00.516Z,1014.14
2018-10-18T00:16:01.095Z,1014.19
2018-10-18T00:17:01.672Z,1014.16
2018-10-18T00:18:02.329Z,1014.12
2018-10-18T00:19:02.828Z,1014.18
2018-10-18T00:20:03.503Z,1014.19
2018-10-18T00:21:04.033Z,1014.18
2018-10-18T00:22:04.610Z,1014.13
2018-10-18T00:23:05.188Z,1014.18
2018-10-18T00:24:05.784Z,1014.15
2018-10-18T00:25:06.393Z,1014.16
2018-10-18T00:26:07.023Z,1014.10
2018-10-18T00:27:07.550Z,1014.13
2018-10-18T00:28:08.128Z,1014.15
2018-10-18T00:29:08.705Z,1014.11
2018-10-18T00:30:09.372Z,1014.14
2018-10-18T00:31:09.913Z,1014.09
2018-10-18T00:32:10.629Z,1014.15
2018-10-18T00:33:11.066Z,1014.11
2018-10-18T00:34:11.643Z,1014.13
2018-10-18T00:35:12.269Z,1014.05
2018-10-18T00:36:12.914Z,1014.05
2018-10-18T00:37:13.426Z,1014.04
2018-10-18T00:38:14.058Z,1014.05
2018-10-18T00:39:14.584Z,1014.05
2018-10-18T00:40:15.162Z,1014.01
2018-10-18T00:41:15.739Z,1013.97
2018-10-18T00:42:16.375Z,1013.93
2018-10-18T00:43:16.895Z,1013.94
2018-10-18T00:44:17.608Z,1013.89
2018-10-18T00:45:18.141Z,1013.91
2018-10-18T00:46:18.719Z,1013.84
2018-10-18T00:47:19.339Z,1013.84
2018-10-18T00:48:19.931Z,1013.84
2018-10-18T00:49:20.590Z,1013.86
2018-10-18T00:50:21.168Z,1013.78
2018-10-18T00:51:21.747Z,1013.87
2018-10-18T00:52:22.324Z,1013.72
2018-10-18T00:53:22.902Z,1013.78
2018-10-18T00:54:23.533Z,1013.68
2018-10-18T00:55:24.110Z,1013.73
2018-10-18T00:56:24.689Z,1013.66
2018-10-18T00:57:25.315Z,1013.68
2018-10-18T00:58:25.891Z,1013.65
2018-10-18T00:59:26.466Z,1013.68
2018-10-18T01:00:27.042Z,1013.68
2018-10-18T01:01:27.622Z,1013.63
2018-10-18T01:02:28.196Z,1013.62
2018-10-18T01:03:28.866Z,1013.58
2018-10-18T01:04:29.444Z,1013.45
2018-10-18T01:05:30.073Z,1013.48
2018-10-18T01:06:30.652Z,1013.43
2018-10-18T01:07:31.230Z,1013.41
2018-10-18T01:08:31.806Z,1013.40
2018-10-18T01:09:32.434Z,1013.36
2018-10-18T01:10:33.011Z,1013.36
2018-10-18T01:11:33.588Z,1013.37
2018-10-18T01:12:34.213Z,1013.37
2018-10-18T01:13:34.742Z,1013.41
2018-10-18T01:14:35.469Z,1013.45
2018-10-18T01:15:36.048Z,1013.41
2018-10-18T01:16:36.625Z,1013.45
2018-10-18T01:17:37.205Z,1013.43
2018-10-18T01:18:37.780Z,1013.47
2018-10-18T01:19:38.359Z,1013.44
2018-10-18T01:20:38.988Z,1013.42
2018-10-18T01:21:39.566Z,1013.41
2018-10-18T01:22:40.147Z,1013.39
2018-10-18T01:23:40.774Z,1013.36
2018-10-18T01:24:41.350Z,1013.39
2018-10-18T01:25:41.925Z,1013.23
2018-10-18T01:26:42.503Z,1013.31
2018-10-18T01:27:43.083Z,1013.22
2018-10-18T01:28:43.708Z,1013.29
2018-10-18T01:29:44.285Z,1013.22
2018-10-18T01:30:44.861Z,1013.24
2018-10-18T01:31:45.439Z,1013.22
2018-10-18T01:32:46.017Z,1013.13
2018-10-18T01:33:46.591Z,1013.22
2018-10-18T01:34:47.167Z,1013.16
2018-10-18T01:35:47.746Z,1013.08
2018-10-18T01:36:48.323Z,1013.03
2018-10-18T01:37:48.895Z,1013.07
2018-10-18T01:38:49.475Z,1013.07
2018-10-18T01:39:50.100Z,1013.01
2018-10-18T01:40:50.678Z,1012.98
2018-10-18T01:41:51.256Z,1012.95
2018-10-18T01:42:51.883Z,1012.95
2018-10-18T01:43:52.471Z,1012.98
2018-10-18T01:44:53.035Z,1012.96
2018-10-18T01:45:53.668Z,1012.92
2018-10-18T01:46:54.287Z,1012.86
2018-10-18T01:47:54.897Z,1012.85
2018-10-18T01:48:55.445Z,1012.80
2018-10-18T01:49:56.041Z,1012.81
2018-10-18T01:50:56.637Z,1012.88
2018-10-18T01:51:57.214Z,1012.85
2018-10-18T01:52:57.794Z,1012.85
2018-10-18T01:53:58.405Z,1012.76
2018-10-18T01:54:58.952Z,1012.73
2018-10-18T01:55:59.585Z,1012.78
2018-10-18T01:57:00.155Z,1012.78
2018-10-18T01:58:00.884Z,1012.73
2018-10-18T01:59:01.463Z,1012.72
2018-10-18T02:00:02.105Z,1012.73
2018-10-18T02:01:02.656Z,1012.74
2018-10-18T02:02:03.281Z,1012.77
2018-10-18T02:03:03.861Z,1012.82
2018-10-18T02:04:04.440Z,1012.80
2018-10-18T02:05:05.020Z,1012.77
2018-10-18T02:06:05.698Z,1012.77
2018-10-18T02:07:06.254Z,1012.77
2018-10-18T02:08:06.840Z,1012.80
2018-10-18T02:09:07.410Z,1012.76
2018-10-18T02:10:08.030Z,1012.73
2018-10-18T02:11:08.607Z,1012.77
2018-10-18T02:12:09.204Z,1012.82
2018-10-18T02:13:09.765Z,1012.82
2018-10-18T02:14:10.338Z,1012.81
2018-10-18T02:15:10.963Z,1012.86
2018-10-18T02:16:11.591Z,1012.86
2018-10-18T02:17:12.211Z,1012.80
2018-10-18T02:18:12.866Z,1012.79
2018-10-18T02:19:13.431Z,1012.85
2018-10-18T02:20:14.091Z,1012.83
2018-10-18T02:21:14.667Z,1012.86
2018-10-18T02:22:15.244Z,1012.72
2018-10-18T02:23:15.820Z,1012.78
2018-10-18T02:24:16.554Z,1012.72
2018-10-18T02:25:17.004Z,1012.70
2018-10-18T02:26:17.556Z,1012.75
2018-10-18T02:27:18.135Z,1012.69
2018-10-18T02:28:18.712Z,1012.69
2018-10-18T02:29:19.291Z,1012.61
2018-10-18T02:30:20.055Z,1012.70
2018-10-18T02:31:20.498Z,1012.64
2018-10-18T02:32:21.117Z,1012.70
2018-10-18T02:33:21.744Z,1012.60
2018-10-18T02:34:22.322Z,1012.59
2018-10-18T02:35:22.901Z,1012.52
2018-10-18T02:36:23.551Z,1012.58
2018-10-18T02:37:24.060Z,1012.53
2018-10-18T02:38:24.639Z,1012.52
2018-10-18T02:39:25.256Z,1012.54
2018-10-18T02:40:25.884Z,1012.48
2018-10-18T02:41:26.504Z,1012.43
2018-10-18T02:42:27.080Z,1012.36
2018-10-18T02:43:27.657Z,1012.37
2018-10-18T02:44:28.245Z,1012.41
2018-10-18T02:45:28.814Z,1012.40
2018-10-18T02:46:29.388Z,1012.47
2018-10-18T02:47:29.964Z,1012.37
2018-10-18T02:48:30.633Z,1012.35
2018-10-18T02:49:31.208Z,1012.36
2018-10-18T02:50:31.788Z,1012.27
2018-10-18T02:51:32.367Z,1012.34
2018-10-18T02:52:32.945Z,1012.31
2018-10-18T02:53:33.574Z,1012.34
2018-10-18T02:54:34.150Z,1012.28
2018-10-18T02:55:34.735Z,1012.31
2018-10-18T02:56:35.363Z,1012.25
2018-10-18T02:57:35.941Z,1012.20
2018-10-18T02:58:36.558Z,1012.21
2018-10-18T02:59:37.143Z,1012.16
2018-10-18T03:00:37.711Z,1012.13
2018-10-18T03:01:38.288Z,1012.13
2018-10-18T03:02:38.867Z,1012.17
2018-10-18T03:03:39.447Z,1012.16
2018-10-18T03:04:40.075Z,1012.16
2018-10-18T03:05:40.650Z,1012.16
2018-10-18T03:06:41.225Z,1012.22
2018-10-18T03:07:41.801Z,1012.16
2018-10-18T03:08:42.376Z,1012.19
2018-10-18T03:09:42.953Z,1012.10
2018-10-18T03:10:43.530Z,1012.13
2018-10-18T03:11:44.159Z,1012.07
2018-10-18T03:12:44.779Z,1012.14
2018-10-18T03:13:45.354Z,1012.16
2018-10-18T03:14:46.084Z,1012.14
2018-10-18T03:15:46.712Z,1012.07
2018-10-18T03:16:47.291Z,1012.05
2018-10-18T03:17:47.868Z,1011.98
2018-10-18T03:18:48.448Z,1011.98
2018-10-18T03:19:49.059Z,1011.98
2018-10-18T03:20:49.641Z,1012.00
2018-10-18T03:21:50.218Z,1011.92
2018-10-18T03:22:50.796Z,1011.96
2018-10-18T03:23:51.375Z,1011.92
2018-10-18T03:24:51.951Z,1011.90
2018-10-18T03:25:52.527Z,1011.94
2018-10-18T03:26:53.105Z,1011.91
2018-10-18T03:27:53.735Z,1011.96
2018-10-18T03:28:54.313Z,1011.96
2018-10-18T03:29:54.982Z,1011.98
2018-10-18T03:30:55.555Z,1011.98
2018-10-18T03:31:56.134Z,1011.96
2018-10-18T03:32:56.714Z,1011.96
2018-10-18T03:33:57.292Z,1011.92
2018-10-18T03:34:57.919Z,1011.82
2018-10-18T03:35:58.502Z,1011.87
2018-10-18T03:36:59.074Z,1011.88
2018-10-18T03:37:59.654Z,1011.93
2018-10-18T03:39:00.229Z,1011.99
2018-10-18T03:40:00.807Z,1011.94
2018-10-18T03:41:01.387Z,1012.00
2018-10-18T03:42:02.073Z,1011.93
2018-10-18T03:43:02.625Z,1011.98
2018-10-18T03:44:03.202Z,1011.98
2018-10-18T03:45:03.778Z,1011.99
2018-10-18T03:46:04.446Z,1012.02
2018-10-18T03:47:05.025Z,1011.96
2018-10-18T03:48:05.658Z,1011.99
2018-10-18T03:49:06.177Z,1012.00
2018-10-18T03:50:06.754Z,1011.99
2018-10-18T03:51:07.334Z,1012.06
2018-10-18T03:52:07.912Z,1012.05
2018-10-18T03:53:08.492Z,1012.09
2018-10-18T03:54:09.172Z,1012.03
2018-10-18T03:55:09.695Z,1012.11
2018-10-18T03:56:10.273Z,1012.15
2018-10-18T03:57:10.901Z,1012.17
2018-10-18T03:58:11.479Z,1012.09
2018-10-18T03:59:12.065Z,1012.11
2018-10-18T04:00:12.685Z,1012.13
2018-10-18T04:01:13.264Z,1012.04
2018-10-18T04:02:13.835Z,1012.04
2018-10-18T04:03:14.463Z,1012.07
2018-10-18T04:04:15.041Z,1012.04
2018-10-18T04:05:15.668Z,1012.03
2018-10-18T04:06:16.275Z,1012.10
2018-10-18T04:07:16.826Z,1012.12
2018-10-18T04:08:17.402Z,1012.15
2018-10-18T04:09:17.978Z,1012.07
2018-10-18T04:10:18.557Z,1012.22
2018-10-18T04:11:19.136Z,1012.20
2018-10-18T04:12:19.772Z,1012.22
2018-10-18T04:13:20.451Z,1012.31
2018-10-18T04:14:20.953Z,1012.33
2018-10-18T04:15:21.530Z,1012.39
2018-10-18T04:16:22.108Z,1012.36
2018-10-18T04:17:22.735Z,1012.36
2018-10-18T04:18:23.364Z,1012.42
2018-10-18T04:19:23.890Z,1012.40
2018-10-18T04:20:24.467Z,1012.36
2018-10-18T04:21:25.094Z,1012.35
2018-10-18T04:22:25.672Z,1012.30
2018-10-18T04:23:26.247Z,1012.28
2018-10-18T04:24:26.824Z,1012.28
2018-10-18T04:25:27.477Z,1012.34
2018-10-18T04:26:28.035Z,1012.22
2018-10-18T04:27:28.605Z,1012.19
2018-10-18T04:28:29.182Z,1012.17
2018-10-18T04:29:29.759Z,1012.17
2018-10-18T04:30:30.385Z,1012.14
2018-10-18T04:31:31.016Z,1012.11
2018-10-18T04:32:31.596Z,1012.18
2018-10-18T04:33:32.225Z,1012.22
2018-10-18T04:34:32.800Z,1012.24
2018-10-18T04:35:33.379Z,1012.14
2018-10-18T04:36:33.958Z,1012.20
2018-10-18T04:37:34.566Z,1012.14
2018-10-18T04:38:35.112Z,1012.19
2018-10-18T04:39:35.688Z,1012.19
2018-10-18T04:40:36.316Z,1012.21
2018-10-18T04:41:36.894Z,1012.23
2018-10-18T04:42:37.473Z,1012.21
2018-10-18T04:43:38.051Z,1012.22
2018-10-18T04:44:38.630Z,1012.25
2018-10-18T04:45:39.298Z,1012.30
2018-10-18T04:46:39.878Z,1012.34
2018-10-18T04:47:40.578Z,1012.39
2018-10-18T04:48:41.293Z,1012.33
2018-10-18T04:49:41.798Z,1012.37
2018-10-18T04:50:42.524Z,1012.43
2018-10-18T04:51:43.104Z,1012.44
2018-10-18T04:52:43.678Z,1012.52
2018-10-18T04:53:44.255Z,1012.45
2018-10-18T04:54:44.829Z,1012.52
2018-10-18T04:55:45.405Z,1012.57
2018-10-18T04:56:46.058Z,1012.55
2018-10-18T04:57:46.557Z,1012.48
2018-10-18T04:58:47.133Z,1012.45
2018-10-18T04:59:47.762Z,1012.58
2018-10-18T05:00:48.341Z,1012.54
2018-10-18T05:01:48.922Z,1012.55
2018-10-18T05:02:49.631Z,1012.54
2018-10-18T05:03:50.168Z,1012.50
2018-10-18T05:04:50.811Z,1012.54
2018-10-18T05:05:51.476Z,1012.51
2018-10-18T05:06:52.071Z,1012.62
2018-10-18T05:07:52.631Z,1012.66
2018-10-18T05:08:53.298Z,1012.60
2018-10-18T05:09:53.875Z,1012.55
2018-10-18T05:10:54.452Z,1012.63
2018-10-18T05:11:55.031Z,1012.62
2018-10-18T05:12:55.658Z,1012.68
2018-10-18T05:13:56.186Z,1012.64
2018-10-18T05:14:56.764Z,1012.70
2018-10-18T05:15:57.382Z,1012.70
2018-10-18T05:16:57.957Z,1012.69
2018-10-18T05:17:58.534Z,1012.61
2018-10-18T05:18:59.166Z,1012.63
2018-10-18T05:19:59.690Z,1012.55
2018-10-18T05:21:00.314Z,1012.55
2018-10-18T05:22:00.941Z,1012.57
2018-10-18T05:23:01.518Z,1012.64
2018-10-18T05:24:02.095Z,1012.67
2018-10-18T05:25:02.737Z,1012.67
2018-10-18T05:26:03.341Z,1012.62
2018-10-18T05:27:03.919Z,1012.62
2018-10-18T05:28:04.540Z,1012.59
2018-10-18T05:29:05.117Z,1012.59
2018-10-18T05:30:05.696Z,1012.58
2018-10-18T05:31:06.537Z,1012.45
2018-10-18T05:32:07.050Z,1012.54
2018-10-18T05:33:07.726Z,1012.58
2018-10-18T05:34:08.303Z,1012.57
2018-10-18T05:35:08.881Z,1012.60
2018-10-18T05:36:09.461Z,1012.57
2018-10-18T05:37:10.089Z,1012.53
2018-10-18T05:38:10.719Z,1012.57
2018-10-18T05:39:11.336Z,1012.53
2018-10-18T05:40:11.913Z,1012.47
2018-10-18T05:41:12.490Z,1012.47
2018-10-18T05:42:13.069Z,1012.49
2018-10-18T05:43:13.715Z,1012.51
2018-10-18T05:44:14.222Z,1012.50
2018-10-18T05:45:14.836Z,1012.42
2018-10-18T05:46:15.412Z,1012.46
2018-10-18T05:47:16.079Z,1012.33
2018-10-18T05:48:16.571Z,1012.44
2018-10-18T05:49:17.195Z,1012.35
2018-10-18T05:50:17.724Z,1012.39
2018-10-18T05:51:18.352Z,1012.44
2018-10-18T05:52:18.929Z,1012.32
2018-10-18T05:53:19.654Z,1012.28
2018-10-18T05:54:20.221Z,1012.32
2018-10-18T05:55:20.794Z,1012.32
2018-10-18T05:56:21.373Z,1012.33
2018-10-18T05:57:21.950Z,1012.28
2018-10-18T05:58:22.530Z,1012.28
2018-10-18T05:59:23.106Z,1012.26
2018-10-18T06:00:23.787Z,1012.27
2018-10-18T06:01:24.353Z,1012.25
2018-10-18T06:02:24.933Z,1012.21
2018-10-18T06:03:25.510Z,1012.28
2018-10-18T06:04:26.085Z,1012.32
2018-10-18T06:05:26.662Z,1012.26
2018-10-18T06:06:27.238Z,1012.24
2018-10-18T06:07:27.815Z,1012.21
2018-10-18T06:08:28.394Z,1012.21
2018-10-18T06:09:29.018Z,1012.17
2018-10-18T06:10:29.660Z,1012.18
2018-10-18T06:11:30.176Z,1012.15
2018-10-18T06:12:30.802Z,1012.14
2018-10-18T06:13:31.380Z,1012.11
2018-10-18T06:14:31.954Z,1012.11
2018-10-18T06:15:32.531Z,1012.03
2018-10-18T06:16:33.107Z,1011.97
2018-10-18T06:17:33.683Z,1012.03
2018-10-18T06:18:34.259Z,1012.05
2018-10-18T06:19:34.886Z,1012.08
2018-10-18T06:20:35.462Z,1012.14
2018-10-18T06:21:36.042Z,1012.16
2018-10-18T06:22:36.644Z,1012.11
2018-10-18T06:23:37.197Z,1012.14
2018-10-18T06:24:37.775Z,1012.13
2018-10-18T06:25:38.351Z,1012.08
2018-10-18T06:26:38.929Z,1012.06
2018-10-18T06:27:39.557Z,1012.01
2018-10-18T06:28:40.135Z,1012.00
2018-10-18T06:29:40.712Z,1012.04
2018-10-18T06:30:41.288Z,1012.07
2018-10-18T06:31:41.864Z,1012.03
2018-10-18T06:32:42.441Z,1012.12
2018-10-18T06:33:43.016Z,1012.15
2018-10-18T06:34:43.593Z,1012.19
2018-10-18T06:35:44.258Z,1012.18
2018-10-18T06:36:44.835Z,1012.12
2018-10-18T06:37:45.463Z,1012.12
2018-10-18T06:38:46.044Z,1012.15
2018-10-18T06:39:46.615Z,1012.22
2018-10-18T06:40:47.191Z,1012.22
2018-10-18T06:41:47.767Z,1012.27
2018-10-18T06:42:48.342Z,1012.34
2018-10-18T06:43:48.919Z,1012.27
2018-10-18T06:44:49.494Z,1012.37
2018-10-18T06:45:50.072Z,1012.26
2018-10-18T06:46:50.668Z,1012.36
2018-10-18T06:47:51.445Z,1012.33
2018-10-18T06:48:51.916Z,1012.34
2018-10-18T06:49:52.482Z,1012.30
2018-10-18T06:50:53.142Z,1012.36
2018-10-18T06:51:53.722Z,1012.41
2018-10-18T06:52:54.390Z,1012.39
2018-10-18T06:53:55.028Z,1012.44
2018-10-18T06:54:55.577Z,1012.51
2018-10-18T06:55:56.166Z,1012.54
2018-10-18T06:56:56.742Z,1012.60
2018-10-18T06:57:57.319Z,1012.59
2018-10-18T06:58:57.896Z,1012.57
2018-10-18T06:59:58.535Z,1012.59
2018-10-18T07:00:59.054Z,1012.67
2018-10-18T07:01:59.631Z,1012.57
2018-10-18T07:03:00.210Z,1012.70
2018-10-18T07:04:00.787Z,1012.65
2018-10-18T07:05:01.365Z,1012.71
2018-10-18T07:06:01.995Z,1012.70
2018-10-18T07:07:02.519Z,1012.71
2018-10-18T07:08:03.138Z,1012.77
2018-10-18T07:09:03.742Z,1012.73
2018-10-18T07:10:04.344Z,1012.84
2018-10-18T07:11:05.073Z,1012.75
2018-10-18T07:12:05.657Z,1012.72
2018-10-18T07:13:06.175Z,1012.71
2018-10-18T07:14:06.751Z,1012.68
2018-10-18T07:15:07.331Z,1012.66
2018-10-18T07:16:07.902Z,1012.76
2018-10-18T07:17:08.480Z,1012.76
2018-10-18T07:18:09.076Z,1012.72
2018-10-18T07:19:09.671Z,1012.67
2018-10-18T07:20:10.246Z,1012.65
2018-10-18T07:21:10.823Z,1012.65
2018-10-18T07:22:11.398Z,1012.68
2018-10-18T07:23:12.025Z,1012.76
2018-10-18T07:24:12.664Z,1012.73
2018-10-18T07:25:13.220Z,1012.82
2018-10-18T07:26:13.761Z,1012.75
2018-10-18T07:27:14.338Z,1012.76
2018-10-18T07:28:14.968Z,1012.75
2018-10-18T07:29:15.543Z,1012.72
2018-10-18T07:30:16.202Z,1012.86
2018-10-18T07:31:16.747Z,1012.87
2018-10-18T07:32:17.323Z,1012.87
2018-10-18T07:33:17.901Z,1012.83
2018-10-18T07:34:18.478Z,1012.86
2018-10-18T07:35:19.106Z,1012.86
2018-10-18T07:36:19.684Z,1012.97
2018-10-18T07:37:20.261Z,1012.94
2018-10-18T07:38:20.840Z,1012.86
2018-10-18T07:39:21.417Z,1012.90
2018-10-18T07:40:21.994Z,1012.95
2018-10-18T07:41:22.601Z,1012.95
2018-10-18T07:42:23.144Z,1013.00
2018-10-18T07:43:23.729Z,1013.02
2018-10-18T07:44:24.301Z,1013.03
2018-10-18T07:45:24.879Z,1013.12
2018-10-18T07:46:25.505Z,1013.01
2018-10-18T07:47:26.132Z,1012.95
2018-10-18T07:48:26.710Z,1012.97
2018-10-18T07:49:27.286Z,1013.01
2018-10-18T07:50:27.914Z,1013.04
2018-10-18T07:51:28.491Z,1013.03
2018-10-18T07:52:29.066Z,1013.10
2018-10-18T07:53:29.675Z,1013.11
2018-10-18T07:54:30.220Z,1013.12
2018-10-18T07:55:30.844Z,1013.11
2018-10-18T07:56:31.421Z,1013.15
2018-10-18T07:57:31.999Z,1013.10
2018-10-18T07:58:32.574Z,1013.13
2018-10-18T07:59:33.153Z,1013.09
2018-10-18T08:00:33.812Z,1013.16
2018-10-18T08:01:34.309Z,1013.16
2018-10-18T08:02:34.887Z,1013.13
2018-10-18T08:03:35.462Z,1013.14
2018-10-18T08:04:36.039Z,1013.16
2018-10-18T08:05:36.667Z,1013.14
2018-10-18T08:06:37.296Z,1013.14
2018-10-18T08:07:37.873Z,1013.12
2018-10-18T08:08:38.493Z,1013.14
2018-10-18T08:09:39.123Z,1013.12
2018-10-18T08:10:39.700Z,1013.16
2018-10-18T08:11:40.277Z,1013.17
2018-10-18T08:12:40.854Z,1013.12
2018-10-18T08:13:41.429Z,1013.11
2018-10-18T08:14:42.004Z,1013.14
2018-10-18T08:15:42.580Z,1013.17
2018-10-18T08:16:43.166Z,1013.16
2018-10-18T08:17:43.731Z,1013.20
2018-10-18T08:18:44.307Z,1013.21
2018-10-18T08:19:44.886Z,1013.07
2018-10-18T08:20:45.504Z,1013.17
2018-10-18T08:21:46.133Z,1013.12
2018-10-18T08:22:46.713Z,1013.19
2018-10-18T08:23:47.287Z,1013.17
2018-10-18T08:24:47.912Z,1013.17
2018-10-18T08:25:48.491Z,1013.21
2018-10-18T08:26:49.073Z,1013.33
2018-10-18T08:27:49.700Z,1013.32
2018-10-18T08:28:50.277Z,1013.38
2018-10-18T08:29:50.894Z,1013.35
2018-10-18T08:30:51.477Z,1013.28
2018-10-18T08:31:52.141Z,1013.17
2018-10-18T08:32:52.630Z,1013.11
2018-10-18T08:33:53.208Z,1013.10
2018-10-18T08:34:53.785Z,1013.06
2018-10-18T08:35:54.365Z,1013.00
2018-10-18T08:36:55.028Z,1013.14
2018-10-18T08:37:55.735Z,1013.20
2018-10-18T08:38:56.137Z,1013.17
2018-10-18T08:39:56.711Z,1013.14
2018-10-18T08:40:57.340Z,1013.25
2018-10-18T08:41:57.962Z,1013.31
2018-10-18T08:42:58.601Z,1013.25
2018-10-18T08:43:59.452Z,1013.23
2018-10-18T08:45:00.037Z,1013.12
2018-10-18T08:46:00.649Z,1013.19
2018-10-18T08:47:01.224Z,1013.16
2018-10-18T08:48:01.801Z,1013.14
2018-10-18T08:49:02.431Z,1013.21
2018-10-18T08:50:03.020Z,1013.15
2018-10-18T08:51:03.534Z,1013.13
2018-10-18T08:52:04.153Z,1013.22
2018-10-18T08:53:04.729Z,1013.27
2018-10-18T08:54:05.307Z,1013.13
2018-10-18T08:55:05.920Z,1013.18
2018-10-18T08:56:06.463Z,1013.06
2018-10-18T08:57:07.039Z,1013.16
2018-10-18T08:58:07.618Z,1013.17
2018-10-18T08:59:08.214Z,1013.11
2018-10-18T09:00:08.859Z,1013.09
2018-10-18T09:01:09.624Z,1013.08
2018-10-18T09:02:10.115Z,1013.22
2018-10-18T09:03:10.693Z,1013.23
2018-10-18T09:04:11.271Z,1013.25
2018-10-18T09:05:11.901Z,1013.24
2018-10-18T09:06:12.476Z,1013.28
2018-10-18T09:07:13.160Z,1013.32
2018-10-18T09:08:13.633Z,1013.28
2018-10-18T09:09:14.361Z,1013.21
2018-10-18T09:10:14.827Z,1013.28
2018-10-18T09:11:15.405Z,1013.22
2018-10-18T09:12:15.983Z,1013.24
2018-10-18T09:13:16.636Z,1013.27
2018-10-18T09:14:17.141Z,1013.38
2018-10-18T09:15:17.717Z,1013.36
2018-10-18T09:16:18.296Z,1013.46
2018-10-18T09:17:18.927Z,1013.41
2018-10-18T09:18:19.551Z,1013.29
2018-10-18T09:19:20.127Z,1013.26
2018-10-18T09:20:20.705Z,1013.26
2018-10-18T09:21:21.281Z,1013.19
2018-10-18T09:22:21.907Z,1013.22
2018-10-18T09:23:22.485Z,1013.22
2018-10-18T09:24:23.064Z,1013.21
2018-10-18T09:25:23.645Z,1013.20
2018-10-18T09:26:24.226Z,1013.20
2018-10-18T09:27:24.852Z,1013.19
2018-10-18T09:28:25.433Z,1013.26
2018-10-18T09:29:26.012Z,1013.30
2018-10-18T09:30:26.805Z,1013.23
2018-10-18T09:31:27.203Z,1013.21
2018-10-18T09:32:27.828Z,1013.22
2018-10-18T09:33:33.460Z,1013.29
2018-10-18T09:34:34.033Z,1013.35
2018-10-18T09:35:34.663Z,1013.34
2018-10-18T09:36:35.238Z,1013.34
2018-10-18T09:37:35.854Z,1013.40
2018-10-18T09:38:36.633Z,1013.41
2018-10-18T09:39:37.213Z,1013.41
2018-10-18T09:40:37.790Z,1013.38
2018-10-18T09:41:38.371Z,1013.33
2018-10-18T09:42:38.950Z,1013.43
2018-10-18T09:43:39.530Z,1013.37
2018-10-18T09:44:40.159Z,1013.37
2018-10-18T09:45:40.688Z,1013.38
2018-10-18T09:46:41.272Z,1013.31
2018-10-18T09:47:41.851Z,1013.32
2018-10-18T09:48:42.428Z,1013.38
2018-10-18T09:49:43.057Z,1013.37
2018-10-18T09:50:43.634Z,1013.40
2018-10-18T09:51:44.214Z,1013.41
2018-10-18T09:52:44.840Z,1013.37
2018-10-18T09:53:45.422Z,1013.44
2018-10-18T09:54:45.999Z,1013.35
2018-10-18T09:55:46.762Z,1013.36
2018-10-18T09:56:47.165Z,1013.38
2018-10-18T09:57:47.776Z,1013.46
2018-10-18T09:58:48.355Z,1013.51
2018-10-18T09:59:49.022Z,1013.51
2018-10-18T10:00:49.600Z,1013.49
2018-10-18T10:01:50.179Z,1013.60
2018-10-18T10:02:50.763Z,1013.55
2018-10-18T10:03:51.383Z,1013.55
2018-10-18T10:04:52.003Z,1013.66
2018-10-18T10:05:52.581Z,1013.60
2018-10-18T10:06:53.166Z,1013.66
2018-10-18T10:07:53.736Z,1013.57
2018-10-18T10:08:54.367Z,1013.60
2018-10-18T10:09:54.942Z,1013.58
2018-10-18T10:10:55.520Z,1013.62
2018-10-18T10:11:56.147Z,1013.55
2018-10-18T10:12:56.742Z,1013.50
2018-10-18T10:13:57.347Z,1013.50
2018-10-18T10:14:57.935Z,1013.48
2018-10-18T10:15:58.516Z,1013.51
2018-10-18T10:16:59.097Z,1013.53
2018-10-18T10:17:59.681Z,1013.53
2018-10-18T10:19:00.295Z,1013.53
2018-10-18T10:20:00.888Z,1013.46
2018-10-18T10:21:01.463Z,1013.52
2018-10-18T10:22:02.084Z,1013.56
2018-10-18T10:23:02.660Z,1013.54
2018-10-18T10:24:03.287Z,1013.62
2018-10-18T10:25:03.934Z,1013.60
2018-10-18T10:26:04.496Z,1013.65
2018-10-18T10:27:05.075Z,1013.75
2018-10-18T10:28:05.653Z,1013.75
2018-10-18T10:29:06.283Z,1013.82
2018-10-18T10:30:06.925Z,1013.72
2018-10-18T10:31:07.519Z,1013.79
2018-10-18T10:32:08.056Z,1013.87
2018-10-18T10:33:08.751Z,1013.85
2018-10-18T10:34:09.217Z,1013.86
2018-10-18T10:35:09.879Z,1013.83
2018-10-18T10:36:10.377Z,1013.80
2018-10-18T10:37:10.979Z,1013.82
2018-10-18T10:38:11.533Z,1013.81
2018-10-18T10:39:12.252Z,1013.77
2018-10-18T10:40:12.876Z,1013.82
2018-10-18T10:41:13.498Z,1013.77
2018-10-18T10:42:13.995Z,1013.82
2018-10-18T10:43:14.518Z,1013.84
2018-10-18T10:44:15.119Z,1013.76
2018-10-18T10:45:15.752Z,1013.76
2018-10-18T10:46:16.339Z,1013.73
2018-10-18T10:47:16.931Z,1013.77
2018-10-18T10:48:17.567Z,1013.74
2018-10-18T10:49:18.178Z,1013.74
2018-10-18T10:50:18.809Z,1013.70
2018-10-18T10:51:19.304Z,1013.77
2018-10-18T10:52:19.929Z,1013.78
2018-10-18T10:53:20.469Z,1013.75
2018-10-18T10:54:21.047Z,1013.66
2018-10-18T10:55:21.627Z,1013.73
2018-10-18T10:56:22.206Z,1013.73
2018-10-18T10:57:22.787Z,1013.73
2018-10-18T10:58:23.368Z,1013.65
2018-10-18T10:59:23.995Z,1013.65
2018-10-18T11:00:24.614Z,1013.65
2018-10-18T11:01:25.193Z,1013.66
2018-10-18T11:02:25.775Z,1013.68
2018-10-18T11:03:26.354Z,1013.65
2018-10-18T11:04:26.933Z,1013.70
2018-10-18T11:05:27.511Z,1013.68
2018-10-18T11:06:28.141Z,1013.68
2018-10-18T11:07:28.726Z,1013.62
2018-10-18T11:08:29.393Z,1013.62
2018-10-18T11:09:30.059Z,1013.62
2018-10-18T11:10:30.556Z,1013.60
2018-10-18T11:11:31.175Z,1013.60
2018-10-18T11:12:31.827Z,1013.58
2018-10-18T11:13:32.330Z,1013.65
2018-10-18T11:14:32.908Z,1013.55
2018-10-18T11:15:33.487Z,1013.57
2018-10-18T11:16:34.115Z,1013.57
2018-10-18T11:17:34.694Z,1013.57
2018-10-18T11:18:35.274Z,1013.52
2018-10-18T11:19:35.851Z,1013.55
2018-10-18T11:20:36.429Z,1013.57
2018-10-18T11:21:37.094Z,1013.60
2018-10-18T11:22:37.590Z,1013.58
2018-10-18T11:23:38.170Z,1013.63
2018-10-18T11:24:38.898Z,1013.62
2018-10-18T11:25:39.468Z,1013.66
2018-10-18T11:26:40.095Z,1013.64
2018-10-18T11:27:40.676Z,1013.62
2018-10-18T11:28:41.254Z,1013.65
2018-10-18T11:29:41.836Z,1013.64
2018-10-18T11:30:42.513Z,1013.63
2018-10-18T11:31:43.095Z,1013.68
2018-10-18T11:32:43.770Z,1013.59
2018-10-18T11:33:44.351Z,1013.59
2018-10-18T11:34:45.034Z,1013.59
2018-10-18T11:35:45.612Z,1013.59
2018-10-18T11:36:46.192Z,1013.50
2018-10-18T11:37:46.773Z,1013.56
2018-10-18T11:38:47.351Z,1013.55
2018-10-18T11:39:47.931Z,1013.49
2018-10-18T11:40:48.510Z,1013.58
2018-10-18T11:41:49.146Z,1013.56
2018-10-18T11:42:49.780Z,1013.52
2018-10-18T11:43:50.290Z,1013.39
2018-10-18T11:44:50.867Z,1013.42
2018-10-18T11:45:51.445Z,1013.45
2018-10-18T11:46:52.074Z,1013.38
2018-10-18T11:47:52.715Z,1013.40
2018-10-18T11:48:53.281Z,1013.45
2018-10-18T11:49:53.963Z,1013.43
2018-10-18T11:50:54.492Z,1013.50
2018-10-18T11:51:55.131Z,1013.43
2018-10-18T11:52:55.647Z,1013.46
2018-10-18T11:53:56.274Z,1013.40
2018-10-18T11:54:56.805Z,1013.38
2018-10-18T11:55:57.407Z,1013.42
2018-10-18T11:56:57.959Z,1013.32
2018-10-18T11:57:58.536Z,1013.31
2018-10-18T11:58:59.158Z,1013.34
2018-10-18T11:59:59.695Z,1013.34
2018-10-18T12:01:00.285Z,1013.35
2018-10-18T12:02:00.879Z,1013.38
2018-10-18T12:03:01.430Z,1013.38
2018-10-18T12:04:02.011Z,1013.29
2018-10-18T12:05:02.662Z,1013.31
2018-10-18T12:06:03.170Z,1013.24
2018-10-18T12:07:03.802Z,1013.28
2018-10-18T12:08:04.478Z,1013.30
2018-10-18T12:09:05.061Z,1013.24
2018-10-18T12:10:05.640Z,1013.24
2018-10-18T12:11:06.288Z,1013.23
2018-10-18T12:12:06.797Z,1013.23
2018-10-18T12:13:07.379Z,1013.20